sensor_id;sensor_type;location;lat;lon;timestamp;pressure;altitude;pressure_sealevel;temperature
21336;BMP180;69435;52.670;13.544;2023-11-21T00:02:21;100172.00;;;11.60
21336;BMP180;69435;52.670;13.544;2023-11-21T00:05:08;100164.00;;;11.60
21336;BMP180;69435;52.670;13.544;2023-11-21T00:07:55;100186.00;;;11.50
21336;BMP180;69435;52.670;13.544;2023-11-21T00:10:41;100196.00;;;11.50
21336;BMP180;69435;52.670;13.544;2023-11-21T00:13:27;100183.00;;;11.50
21336;BMP180;69435;52.670;13.544;2023-11-21T00:16:13;100168.00;;;11.50
21336;BMP180;69435;52.670;13.544;2023-11-21T00:18:59;100188.00;;;11.40
21336;BMP180;69435;52.670;13.544;2023-11-21T00:21:45;100179.00;;;11.40
21336;BMP180;69435;52.670;13.544;2023-11-21T00:24:32;100200.00;;;11.40
21336;BMP180;69435;52.670;13.544;2023-11-21T00:27:18;100198.00;;;11.40
21336;BMP180;69435;52.670;13.544;2023-11-21T00:30:04;100199.00;;;11.30
21336;BMP180;69435;52.670;13.544;2023-11-21T00:32:52;100188.00;;;11.30
21336;BMP180;69435;52.670;13.544;2023-11-21T00:35:38;100212.00;;;11.30
21336;BMP180;69435;52.670;13.544;2023-11-21T00:38:24;100212.00;;;11.20
21336;BMP180;69435;52.670;13.544;2023-11-21T00:41:10;100191.00;;;11.20
21336;BMP180;69435;52.670;13.544;2023-11-21T00:43:56;100216.00;;;11.20
21336;BMP180;69435;52.670;13.544;2023-11-21T00:46:42;100221.00;;;11.20
21336;BMP180;69435;52.670;13.544;2023-11-21T00:49:28;100220.00;;;11.20
21336;BMP180;69435;52.670;13.544;2023-11-21T00:52:14;100225.00;;;11.10
21336;BMP180;69435;52.670;13.544;2023-11-21T00:55:02;100231.00;;;11.10
21336;BMP180;69435;52.670;13.544;2023-11-21T00:57:49;100208.00;;;11.10
21336;BMP180;69435;52.670;13.544;2023-11-21T01:00:35;100222.00;;;11.00
21336;BMP180;69435;52.670;13.544;2023-11-21T01:03:21;100241.00;;;11.00
21336;BMP180;69435;52.670;13.544;2023-11-21T01:06:08;100234.00;;;10.80
21336;BMP180;69435;52.670;13.544;2023-11-21T01:08:54;100216.00;;;10.90
21336;BMP180;69435;52.670;13.544;2023-11-21T01:11:40;100227.00;;;10.90
21336;BMP180;69435;52.670;13.544;2023-11-21T01:14:27;100235.00;;;10.90
21336;BMP180;69435;52.670;13.544;2023-11-21T01:17:13;100228.00;;;10.90
21336;BMP180;69435;52.670;13.544;2023-11-21T01:20:00;100235.00;;;10.80
21336;BMP180;69435;52.670;13.544;2023-11-21T01:22:46;100244.00;;;10.90
21336;BMP180;69435;52.670;13.544;2023-11-21T01:25:34;100218.00;;;10.80
21336;BMP180;69435;52.670;13.544;2023-11-21T01:28:21;100261.00;;;10.80
21336;BMP180;69435;52.670;13.544;2023-11-21T01:31:07;100260.00;;;10.80
21336;BMP180;69435;52.670;13.544;2023-11-21T01:33:53;100258.00;;;10.70
21336;BMP180;69435;52.670;13.544;2023-11-21T01:36:40;100272.00;;;10.70
21336;BMP180;69435;52.670;13.544;2023-11-21T01:39:27;100283.00;;;10.70
21336;BMP180;69435;52.670;13.544;2023-11-21T01:42:15;100263.00;;;10.70
21336;BMP180;69435;52.670;13.544;2023-11-21T01:45:01;100274.00;;;10.70
21336;BMP180;69435;52.670;13.544;2023-11-21T01:47:50;100269.00;;;10.70
21336;BMP180;69435;52.670;13.544;2023-11-21T01:50:37;100252.00;;;10.70
21336;BMP180;69435;52.670;13.544;2023-11-21T01:53:25;100280.00;;;10.70
21336;BMP180;69435;52.670;13.544;2023-11-21T01:56:13;100280.00;;;10.70
21336;BMP180;69435;52.670;13.544;2023-11-21T01:58:59;100281.00;;;10.70
21336;BMP180;69435;52.670;13.544;2023-11-21T02:01:45;100270.00;;;10.70
21336;BMP180;69435;52.670;13.544;2023-11-21T02:04:36;100276.00;;;10.80
21336;BMP180;69435;52.670;13.544;2023-11-21T02:07:22;100267.00;;;10.80
21336;BMP180;69435;52.670;13.544;2023-11-21T02:10:09;100255.00;;;10.80
21336;BMP180;69435;52.670;13.544;2023-11-21T02:12:55;100277.00;;;10.80
21336;BMP180;69435;52.670;13.544;2023-11-21T02:15:42;100275.00;;;10.80
21336;BMP180;69435;52.670;13.544;2023-11-21T02:18:29;100281.00;;;10.70
21336;BMP180;69435;52.670;13.544;2023-11-21T02:21:15;100243.00;;;10.70
21336;BMP180;69435;52.670;13.544;2023-11-21T02:24:02;100284.00;;;10.70
21336;BMP180;69435;52.670;13.544;2023-11-21T02:26:49;100288.00;;;10.70
21336;BMP180;69435;52.670;13.544;2023-11-21T02:29:37;100300.00;;;10.70
21336;BMP180;69435;52.670;13.544;2023-11-21T02:32:24;100299.00;;;10.70
21336;BMP180;69435;52.670;13.544;2023-11-21T02:35:11;100295.00;;;10.70
21336;BMP180;69435;52.670;13.544;2023-11-21T02:37:58;100295.00;;;10.70
21336;BMP180;69435;52.670;13.544;2023-11-21T02:40:44;100317.00;;;10.70
21336;BMP180;69435;52.670;13.544;2023-11-21T02:43:30;100308.00;;;10.60
21336;BMP180;69435;52.670;13.544;2023-11-21T02:46:16;100277.00;;;10.60
21336;BMP180;69435;52.670;13.544;2023-11-21T02:49:03;100316.00;;;10.60
21336;BMP180;69435;52.670;13.544;2023-11-21T02:51:51;100314.00;;;10.60
21336;BMP180;69435;52.670;13.544;2023-11-21T02:54:37;100303.00;;;10.60
21336;BMP180;69435;52.670;13.544;2023-11-21T02:57:23;100308.00;;;10.60
21336;BMP180;69435;52.670;13.544;2023-11-21T03:00:10;100314.00;;;10.60
21336;BMP180;69435;52.670;13.544;2023-11-21T03:02:58;100321.00;;;10.60
21336;BMP180;69435;52.670;13.544;2023-11-21T03:05:44;100320.00;;;10.50
21336;BMP180;69435;52.670;13.544;2023-11-21T03:08:30;100321.00;;;10.50
21336;BMP180;69435;52.670;13.544;2023-11-21T03:11:16;100323.00;;;10.50
21336;BMP180;69435;52.670;13.544;2023-11-21T03:14:03;100313.00;;;10.50
21336;BMP180;69435;52.670;13.544;2023-11-21T03:16:49;100326.00;;;10.50
21336;BMP180;69435;52.670;13.544;2023-11-21T03:19:35;100337.00;;;10.40
21336;BMP180;69435;52.670;13.544;2023-11-21T03:22:21;100321.00;;;10.40
21336;BMP180;69435;52.670;13.544;2023-11-21T03:25:08;100339.00;;;10.40
21336;BMP180;69435;52.670;13.544;2023-11-21T03:27:56;100333.00;;;10.40
21336;BMP180;69435;52.670;13.544;2023-11-21T03:30:43;100331.00;;;10.40
21336;BMP180;69435;52.670;13.544;2023-11-21T03:33:29;100326.00;;;10.40
21336;BMP180;69435;52.670;13.544;2023-11-21T03:36:15;100352.00;;;10.30
21336;BMP180;69435;52.670;13.544;2023-11-21T03:39:01;100361.00;;;10.20
21336;BMP180;69435;52.670;13.544;2023-11-21T03:41:48;100365.00;;;10.30
21336;BMP180;69435;52.670;13.544;2023-11-21T03:44:34;100361.00;;;10.20
21336;BMP180;69435;52.670;13.544;2023-11-21T03:47:20;100336.00;;;10.20
21336;BMP180;69435;52.670;13.544;2023-11-21T03:50:06;100347.00;;;10.20
21336;BMP180;69435;52.670;13.544;2023-11-21T03:52:54;100359.00;;;10.20
21336;BMP180;69435;52.670;13.544;2023-11-21T03:55:40;100357.00;;;10.10
21336;BMP180;69435;52.670;13.544;2023-11-21T03:58:26;100334.00;;;10.10
21336;BMP180;69435;52.670;13.544;2023-11-21T04:01:19;100363.00;;;10.10
21336;BMP180;69435;52.670;13.544;2023-11-21T04:04:06;100353.00;;;10.10
21336;BMP180;69435;52.670;13.544;2023-11-21T04:06:52;100379.00;;;10.10
21336;BMP180;69435;52.670;13.544;2023-11-21T04:09:40;100384.00;;;10.10
21336;BMP180;69435;52.670;13.544;2023-11-21T04:12:27;100364.00;;;10.10
21336;BMP180;69435;52.670;13.544;2023-11-21T04:15:13;100376.00;;;10.00
21336;BMP180;69435;52.670;13.544;2023-11-21T04:18:00;100379.00;;;9.90
21336;BMP180;69435;52.670;13.544;2023-11-21T04:20:46;100393.00;;;10.00
21336;BMP180;69435;52.670;13.544;2023-11-21T04:23:32;100385.00;;;9.90
21336;BMP180;69435;52.670;13.544;2023-11-21T04:26:18;100395.00;;;9.90
21336;BMP180;69435;52.670;13.544;2023-11-21T04:29:04;100391.00;;;9.90
21336;BMP180;69435;52.670;13.544;2023-11-21T04:31:50;100369.00;;;9.90
21336;BMP180;69435;52.670;13.544;2023-11-21T04:34:36;100384.00;;;9.90
21336;BMP180;69435;52.670;13.544;2023-11-21T04:37:22;100400.00;;;10.00
21336;BMP180;69435;52.670;13.544;2023-11-21T04:40:09;100422.00;;;10.00
21336;BMP180;69435;52.670;13.544;2023-11-21T04:42:55;100422.00;;;10.00
21336;BMP180;69435;52.670;13.544;2023-11-21T04:45:43;100428.00;;;10.00
21336;BMP180;69435;52.670;13.544;2023-11-21T04:48:29;100389.00;;;9.90
21336;BMP180;69435;52.670;13.544;2023-11-21T04:51:15;100431.00;;;9.90
21336;BMP180;69435;52.670;13.544;2023-11-21T04:54:01;100436.00;;;9.90
21336;BMP180;69435;52.670;13.544;2023-11-21T04:56:47;100430.00;;;9.80
21336;BMP180;69435;52.670;13.544;2023-11-21T04:59:34;100433.00;;;9.80
21336;BMP180;69435;52.670;13.544;2023-11-21T05:02:20;100442.00;;;9.80
21336;BMP180;69435;52.670;13.544;2023-11-21T05:05:07;100423.00;;;9.80
21336;BMP180;69435;52.670;13.544;2023-11-21T05:07:56;100440.00;;;9.80
21336;BMP180;69435;52.670;13.544;2023-11-21T05:10:42;100431.00;;;9.80
21336;BMP180;69435;52.670;13.544;2023-11-21T05:13:28;100402.00;;;9.80
21336;BMP180;69435;52.670;13.544;2023-11-21T05:16:14;100441.00;;;9.80
21336;BMP180;69435;52.670;13.544;2023-11-21T05:19:01;100427.00;;;9.80
21336;BMP180;69435;52.670;13.544;2023-11-21T05:21:47;100460.00;;;9.80
21336;BMP180;69435;52.670;13.544;2023-11-21T05:24:33;100451.00;;;9.80
21336;BMP180;69435;52.670;13.544;2023-11-21T05:27:19;100465.00;;;9.80
21336;BMP180;69435;52.670;13.544;2023-11-21T05:30:06;100481.00;;;9.70
21336;BMP180;69435;52.670;13.544;2023-11-21T05:32:52;100476.00;;;9.80
21336;BMP180;69435;52.670;13.544;2023-11-21T05:35:39;100417.00;;;9.80
21336;BMP180;69435;52.670;13.544;2023-11-21T05:38:25;100465.00;;;9.70
21336;BMP180;69435;52.670;13.544;2023-11-21T05:41:11;100484.00;;;9.70
21336;BMP180;69435;52.670;13.544;2023-11-21T05:43:59;100487.00;;;9.70
21336;BMP180;69435;52.670;13.544;2023-11-21T05:46:45;100458.00;;;9.60
21336;BMP180;69435;52.670;13.544;2023-11-21T05:49:31;100475.00;;;9.60
21336;BMP180;69435;52.670;13.544;2023-11-21T05:52:18;100483.00;;;9.50
21336;BMP180;69435;52.670;13.544;2023-11-21T05:55:05;100486.00;;;9.50
21336;BMP180;69435;52.670;13.544;2023-11-21T05:57:53;100482.00;;;9.60
21336;BMP180;69435;52.670;13.544;2023-11-21T06:00:39;100478.00;;;9.60
21336;BMP180;69435;52.670;13.544;2023-11-21T06:03:26;100512.00;;;9.60
21336;BMP180;69435;52.670;13.544;2023-11-21T06:06:12;100509.00;;;9.60
21336;BMP180;69435;52.670;13.544;2023-11-21T06:08:58;100479.00;;;9.60
21336;BMP180;69435;52.670;13.544;2023-11-21T06:11:44;100505.00;;;9.60
21336;BMP180;69435;52.670;13.544;2023-11-21T06:14:30;100514.00;;;9.60
21336;BMP180;69435;52.670;13.544;2023-11-21T06:17:19;100522.00;;;9.60
21336;BMP180;69435;52.670;13.544;2023-11-21T06:20:10;100541.00;;;9.60
21336;BMP180;69435;52.670;13.544;2023-11-21T06:22:59;100530.00;;;9.60
21336;BMP180;69435;52.670;13.544;2023-11-21T06:25:49;100529.00;;;9.60
21336;BMP180;69435;52.670;13.544;2023-11-21T06:28:35;100529.00;;;9.60
21336;BMP180;69435;52.670;13.544;2023-11-21T06:31:24;100548.00;;;9.60
21336;BMP180;69435;52.670;13.544;2023-11-21T06:34:10;100556.00;;;9.60
21336;BMP180;69435;52.670;13.544;2023-11-21T06:36:56;100578.00;;;9.50
21336;BMP180;69435;52.670;13.544;2023-11-21T06:39:42;100552.00;;;9.50
21336;BMP180;69435;52.670;13.544;2023-11-21T06:42:28;100580.00;;;9.50
21336;BMP180;69435;52.670;13.544;2023-11-21T06:45:16;100577.00;;;9.50
21336;BMP180;69435;52.670;13.544;2023-11-21T06:48:02;100565.00;;;9.50
21336;BMP180;69435;52.670;13.544;2023-11-21T06:50:48;100569.00;;;9.40
21336;BMP180;69435;52.670;13.544;2023-11-21T06:53:36;100583.00;;;9.40
21336;BMP180;69435;52.670;13.544;2023-11-21T06:56:23;100591.00;;;9.40
21336;BMP180;69435;52.670;13.544;2023-11-21T06:59:09;100595.00;;;9.30
21336;BMP180;69435;52.670;13.544;2023-11-21T07:01:57;100589.00;;;9.40
21336;BMP180;69435;52.670;13.544;2023-11-21T07:04:43;100580.00;;;9.40
21336;BMP180;69435;52.670;13.544;2023-11-21T07:07:29;100600.00;;;9.40
21336;BMP180;69435;52.670;13.544;2023-11-21T07:10:15;100595.00;;;9.50
21336;BMP180;69435;52.670;13.544;2023-11-21T07:13:02;100558.00;;;9.40
21336;BMP180;69435;52.670;13.544;2023-11-21T07:15:49;100592.00;;;9.40
21336;BMP180;69435;52.670;13.544;2023-11-21T07:18:35;100583.00;;;9.40
21336;BMP180;69435;52.670;13.544;2023-11-21T07:21:21;100580.00;;;9.50
21336;BMP180;69435;52.670;13.544;2023-11-21T07:24:08;100597.00;;;9.50
21336;BMP180;69435;52.670;13.544;2023-11-21T07:26:54;100586.00;;;9.50
21336;BMP180;69435;52.670;13.544;2023-11-21T07:29:42;100605.00;;;9.50
21336;BMP180;69435;52.670;13.544;2023-11-21T07:32:28;100610.00;;;9.50
21336;BMP180;69435;52.670;13.544;2023-11-21T07:35:14;100629.00;;;9.50
21336;BMP180;69435;52.670;13.544;2023-11-21T07:38:00;100625.00;;;9.60
21336;BMP180;69435;52.670;13.544;2023-11-21T07:40:46;100608.00;;;9.60
21336;BMP180;69435;52.670;13.544;2023-11-21T07:43:32;100643.00;;;9.40
21336;BMP180;69435;52.670;13.544;2023-11-21T07:46:20;100598.00;;;9.60
21336;BMP180;69435;52.670;13.544;2023-11-21T07:49:06;100615.00;;;9.60
21336;BMP180;69435;52.670;13.544;2023-11-21T07:51:52;100621.00;;;9.60
21336;BMP180;69435;52.670;13.544;2023-11-21T07:54:39;100632.00;;;9.50
21336;BMP180;69435;52.670;13.544;2023-11-21T07:57:25;100623.00;;;9.50
21336;BMP180;69435;52.670;13.544;2023-11-21T08:00:12;100637.00;;;9.50
21336;BMP180;69435;52.670;13.544;2023-11-21T08:03:00;100649.00;;;9.50
21336;BMP180;69435;52.670;13.544;2023-11-21T08:05:47;100664.00;;;9.50
21336;BMP180;69435;52.670;13.544;2023-11-21T08:08:33;100647.00;;;9.60
21336;BMP180;69435;52.670;13.544;2023-11-21T08:11:19;100648.00;;;9.50
21336;BMP180;69435;52.670;13.544;2023-11-21T08:14:05;100669.00;;;9.50
21336;BMP180;69435;52.670;13.544;2023-11-21T08:16:51;100677.00;;;9.50
21336;BMP180;69435;52.670;13.544;2023-11-21T08:19:38;100641.00;;;9.50
21336;BMP180;69435;52.670;13.544;2023-11-21T08:22:24;100678.00;;;9.50
21336;BMP180;69435;52.670;13.544;2023-11-21T08:25:11;100665.00;;;9.50
21336;BMP180;69435;52.670;13.544;2023-11-21T08:27:57;100692.00;;;9.50
21336;BMP180;69435;52.670;13.544;2023-11-21T08:30:43;100675.00;;;9.50
21336;BMP180;69435;52.670;13.544;2023-11-21T08:33:29;100673.00;;;9.50
21336;BMP180;69435;52.670;13.544;2023-11-21T08:36:16;100665.00;;;9.50
21336;BMP180;69435;52.670;13.544;2023-11-21T08:39:02;100684.00;;;9.50
21336;BMP180;69435;52.670;13.544;2023-11-21T08:41:48;100692.00;;;9.50
21336;BMP180;69435;52.670;13.544;2023-11-21T08:44:34;100674.00;;;9.50
21336;BMP180;69435;52.670;13.544;2023-11-21T08:47:20;100704.00;;;9.50
21336;BMP180;69435;52.670;13.544;2023-11-21T08:50:07;100693.00;;;9.50
21336;BMP180;69435;52.670;13.544;2023-11-21T08:52:53;100712.00;;;9.40
21336;BMP180;69435;52.670;13.544;2023-11-21T08:55:39;100725.00;;;9.40
21336;BMP180;69435;52.670;13.544;2023-11-21T08:58:25;100687.00;;;9.40
21336;BMP180;69435;52.670;13.544;2023-11-21T09:01:12;100722.00;;;9.30
21336;BMP180;69435;52.670;13.544;2023-11-21T09:03:58;100709.00;;;9.30
21336;BMP180;69435;52.670;13.544;2023-11-21T09:06:44;100726.00;;;9.30
21336;BMP180;69435;52.670;13.544;2023-11-21T09:09:30;100746.00;;;9.30
21336;BMP180;69435;52.670;13.544;2023-11-21T09:12:16;100751.00;;;9.20
21336;BMP180;69435;52.670;13.544;2023-11-21T09:15:07;100737.00;;;9.20
21336;BMP180;69435;52.670;13.544;2023-11-21T09:17:55;100714.00;;;9.20
21336;BMP180;69435;52.670;13.544;2023-11-21T09:20:42;100703.00;;;9.20
21336;BMP180;69435;52.670;13.544;2023-11-21T09:23:31;100757.00;;;9.20
21336;BMP180;69435;52.670;13.544;2023-11-21T09:26:18;100741.00;;;9.20
21336;BMP180;69435;52.670;13.544;2023-11-21T09:29:04;100737.00;;;9.20
21336;BMP180;69435;52.670;13.544;2023-11-21T09:31:50;100768.00;;;9.30
21336;BMP180;69435;52.670;13.544;2023-11-21T09:34:42;100760.00;;;9.20
21336;BMP180;69435;52.670;13.544;2023-11-21T09:37:28;100769.00;;;9.20
21336;BMP180;69435;52.670;13.544;2023-11-21T09:40:14;100762.00;;;9.20
21336;BMP180;69435;52.670;13.544;2023-11-21T09:43:07;100790.00;;;9.10
21336;BMP180;69435;52.670;13.544;2023-11-21T09:46:00;100789.00;;;9.10
21336;BMP180;69435;52.670;13.544;2023-11-21T09:48:51;100789.00;;;9.00
21336;BMP180;69435;52.670;13.544;2023-11-21T09:51:46;100786.00;;;9.00
21336;BMP180;69435;52.670;13.544;2023-11-21T09:54:34;100779.00;;;9.00
21336;BMP180;69435;52.670;13.544;2023-11-21T09:57:23;100804.00;;;9.00
21336;BMP180;69435;52.670;13.544;2023-11-21T10:00:11;100786.00;;;9.00
21336;BMP180;69435;52.670;13.544;2023-11-21T10:02:58;100805.00;;;9.00
21336;BMP180;69435;52.670;13.544;2023-11-21T10:05:45;100760.00;;;9.00
21336;BMP180;69435;52.670;13.544;2023-11-21T10:08:35;100798.00;;;9.00
21336;BMP180;69435;52.670;13.544;2023-11-21T10:11:25;100784.00;;;9.00
21336;BMP180;69435;52.670;13.544;2023-11-21T10:14:12;100816.00;;;9.00
21336;BMP180;69435;52.670;13.544;2023-11-21T10:16:59;100808.00;;;9.00
21336;BMP180;69435;52.670;13.544;2023-11-21T10:19:49;100815.00;;;9.00
21336;BMP180;69435;52.670;13.544;2023-11-21T10:22:35;100803.00;;;9.00
21336;BMP180;69435;52.670;13.544;2023-11-21T10:25:22;100802.00;;;9.00
21336;BMP180;69435;52.670;13.544;2023-11-21T10:28:10;100791.00;;;9.00
21336;BMP180;69435;52.670;13.544;2023-11-21T10:30:56;100782.00;;;8.90
21336;BMP180;69435;52.670;13.544;2023-11-21T10:33:42;100806.00;;;9.00
21336;BMP180;69435;52.670;13.544;2023-11-21T10:36:29;100804.00;;;9.00
21336;BMP180;69435;52.670;13.544;2023-11-21T10:39:20;100800.00;;;9.10
21336;BMP180;69435;52.670;13.544;2023-11-21T10:42:08;100834.00;;;9.10
21336;BMP180;69435;52.670;13.544;2023-11-21T10:44:56;100827.00;;;9.20
21336;BMP180;69435;52.670;13.544;2023-11-21T10:47:44;100844.00;;;9.30
21336;BMP180;69435;52.670;13.544;2023-11-21T10:50:30;100822.00;;;9.30
21336;BMP180;69435;52.670;13.544;2023-11-21T10:53:16;100837.00;;;9.40
21336;BMP180;69435;52.670;13.544;2023-11-21T10:56:06;100844.00;;;9.50
21336;BMP180;69435;52.670;13.544;2023-11-21T10:58:54;100847.00;;;9.60
21336;BMP180;69435;52.670;13.544;2023-11-21T11:01:45;100825.00;;;9.60
21336;BMP180;69435;52.670;13.544;2023-11-21T11:04:32;100832.00;;;9.60
21336;BMP180;69435;52.670;13.544;2023-11-21T11:07:21;100849.00;;;9.60
21336;BMP180;69435;52.670;13.544;2023-11-21T11:10:09;100831.00;;;9.60
21336;BMP180;69435;52.670;13.544;2023-11-21T11:13:00;100827.00;;;9.60
21336;BMP180;69435;52.670;13.544;2023-11-21T11:15:48;100856.00;;;9.50
21336;BMP180;69435;52.670;13.544;2023-11-21T11:18:34;100844.00;;;9.50
21336;BMP180;69435;52.670;13.544;2023-11-21T11:22:03;100861.00;;;9.50
21336;BMP180;69435;52.670;13.544;2023-11-21T11:28:12;100849.00;;;9.50
21336;BMP180;69435;52.670;13.544;2023-11-21T11:34:31;100878.00;;;9.40
21336;BMP180;69435;52.670;13.544;2023-11-21T11:37:19;100874.00;;;9.40
21336;BMP180;69435;52.670;13.544;2023-11-21T11:40:11;100851.00;;;9.30
21336;BMP180;69435;52.670;13.544;2023-11-21T11:42:58;100866.00;;;9.30
21336;BMP180;69435;52.670;13.544;2023-11-21T11:45:48;100872.00;;;9.30
21336;BMP180;69435;52.670;13.544;2023-11-21T11:48:40;100882.00;;;9.20
21336;BMP180;69435;52.670;13.544;2023-11-21T11:51:26;100916.00;;;9.20
21336;BMP180;69435;52.670;13.544;2023-11-21T11:54:12;100886.00;;;9.20
21336;BMP180;69435;52.670;13.544;2023-11-21T11:56:59;100891.00;;;9.20
21336;BMP180;69435;52.670;13.544;2023-11-21T12:00:18;100870.00;;;9.20
21336;BMP180;69435;52.670;13.544;2023-11-21T12:03:10;100917.00;;;9.10
21336;BMP180;69435;52.670;13.544;2023-11-21T12:06:00;100919.00;;;9.10
21336;BMP180;69435;52.670;13.544;2023-11-21T12:08:46;100908.00;;;9.10
21336;BMP180;69435;52.670;13.544;2023-11-21T12:11:33;100929.00;;;9.10
21336;BMP180;69435;52.670;13.544;2023-11-21T12:14:22;100926.00;;;9.10
21336;BMP180;69435;52.670;13.544;2023-11-21T12:17:09;100922.00;;;9.10
21336;BMP180;69435;52.670;13.544;2023-11-21T12:20:05;100918.00;;;9.10
21336;BMP180;69435;52.670;13.544;2023-11-21T12:23:00;100915.00;;;9.00
21336;BMP180;69435;52.670;13.544;2023-11-21T12:25:46;100916.00;;;9.00
21336;BMP180;69435;52.670;13.544;2023-11-21T12:28:32;100925.00;;;9.00
21336;BMP180;69435;52.670;13.544;2023-11-21T12:31:19;100952.00;;;9.00
21336;BMP180;69435;52.670;13.544;2023-11-21T12:34:06;100932.00;;;9.00
21336;BMP180;69435;52.670;13.544;2023-11-21T12:36:52;100944.00;;;9.00
21336;BMP180;69435;52.670;13.544;2023-11-21T12:39:40;100950.00;;;9.00
21336;BMP180;69435;52.670;13.544;2023-11-21T12:42:26;100951.00;;;9.00
21336;BMP180;69435;52.670;13.544;2023-11-21T12:45:24;100966.00;;;9.00
21336;BMP180;69435;52.670;13.544;2023-11-21T12:48:17;100979.00;;;8.90
21336;BMP180;69435;52.670;13.544;2023-11-21T12:51:11;100955.00;;;8.90
21336;BMP180;69435;52.670;13.544;2023-11-21T12:53:57;100966.00;;;8.80
21336;BMP180;69435;52.670;13.544;2023-11-21T12:56:49;100976.00;;;8.80
21336;BMP180;69435;52.670;13.544;2023-11-21T12:59:38;100985.00;;;8.80
21336;BMP180;69435;52.670;13.544;2023-11-21T13:02:30;100985.00;;;8.70
21336;BMP180;69435;52.670;13.544;2023-11-21T13:05:34;100992.00;;;8.70
21336;BMP180;69435;52.670;13.544;2023-11-21T13:08:25;100988.00;;;8.60
21336;BMP180;69435;52.670;13.544;2023-11-21T13:11:11;100970.00;;;8.50
21336;BMP180;69435;52.670;13.544;2023-11-21T13:13:59;100999.00;;;8.40
21336;BMP180;69435;52.670;13.544;2023-11-21T13:16:46;100985.00;;;8.50
21336;BMP180;69435;52.670;13.544;2023-11-21T13:19:32;101014.00;;;8.50
21336;BMP180;69435;52.670;13.544;2023-11-21T13:22:18;101015.00;;;8.40
21336;BMP180;69435;52.670;13.544;2023-11-21T13:25:04;100986.00;;;8.40
21336;BMP180;69435;52.670;13.544;2023-11-21T13:27:59;101035.00;;;8.30
21336;BMP180;69435;52.670;13.544;2023-11-21T13:30:47;101030.00;;;8.30
21336;BMP180;69435;52.670;13.544;2023-11-21T13:33:34;101012.00;;;8.20
21336;BMP180;69435;52.670;13.544;2023-11-21T13:36:24;101035.00;;;8.30
21336;BMP180;69435;52.670;13.544;2023-11-21T13:39:11;101034.00;;;8.20
21336;BMP180;69435;52.670;13.544;2023-11-21T13:42:01;101024.00;;;8.20
21336;BMP180;69435;52.670;13.544;2023-11-21T13:44:49;101009.00;;;8.10
21336;BMP180;69435;52.670;13.544;2023-11-21T13:47:38;101019.00;;;8.10
21336;BMP180;69435;52.670;13.544;2023-11-21T13:50:25;101061.00;;;8.10
21336;BMP180;69435;52.670;13.544;2023-11-21T13:53:18;101058.00;;;8.10
21336;BMP180;69435;52.670;13.544;2023-11-21T13:56:08;101061.00;;;8.00
21336;BMP180;69435;52.670;13.544;2023-11-21T13:58:55;101036.00;;;7.90
21336;BMP180;69435;52.670;13.544;2023-11-21T14:01:41;101066.00;;;7.90
21336;BMP180;69435;52.670;13.544;2023-11-21T14:04:40;101062.00;;;7.90
21336;BMP180;69435;52.670;13.544;2023-11-21T14:07:42;101069.00;;;7.80
21336;BMP180;69435;52.670;13.544;2023-11-21T14:10:33;101075.00;;;7.80
21336;BMP180;69435;52.670;13.544;2023-11-21T14:13:36;101061.00;;;7.70
21336;BMP180;69435;52.670;13.544;2023-11-21T14:16:22;101085.00;;;7.60
21336;BMP180;69435;52.670;13.544;2023-11-21T14:19:08;101091.00;;;7.60
21336;BMP180;69435;52.670;13.544;2023-11-21T14:22:01;101080.00;;;7.60
21336;BMP180;69435;52.670;13.544;2023-11-21T14:24:47;101083.00;;;7.60
21336;BMP180;69435;52.670;13.544;2023-11-21T14:27:36;101082.00;;;7.40
21336;BMP180;69435;52.670;13.544;2023-11-21T14:30:22;101102.00;;;7.50
21336;BMP180;69435;52.670;13.544;2023-11-21T14:33:08;101125.00;;;7.50
21336;BMP180;69435;52.670;13.544;2023-11-21T14:35:57;101101.00;;;7.50
21336;BMP180;69435;52.670;13.544;2023-11-21T14:38:43;101100.00;;;7.40
21336;BMP180;69435;52.670;13.544;2023-11-21T14:41:29;101108.00;;;7.40
21336;BMP180;69435;52.670;13.544;2023-11-21T14:44:15;101125.00;;;7.40
21336;BMP180;69435;52.670;13.544;2023-11-21T14:47:02;101129.00;;;7.40
21336;BMP180;69435;52.670;13.544;2023-11-21T14:49:53;101151.00;;;7.30
21336;BMP180;69435;52.670;13.544;2023-11-21T14:52:39;101132.00;;;7.30
21336;BMP180;69435;52.670;13.544;2023-11-21T14:55:40;101142.00;;;7.30
21336;BMP180;69435;52.670;13.544;2023-11-21T14:58:42;101113.00;;;7.20
21336;BMP180;69435;52.670;13.544;2023-11-21T15:01:31;101151.00;;;7.20
21336;BMP180;69435;52.670;13.544;2023-11-21T15:04:36;101126.00;;;7.20
21336;BMP180;69435;52.670;13.544;2023-11-21T15:07:23;101147.00;;;7.20
21336;BMP180;69435;52.670;13.544;2023-11-21T15:10:12;101170.00;;;7.30
21336;BMP180;69435;52.670;13.544;2023-11-21T15:13:00;101154.00;;;7.30
21336;BMP180;69435;52.670;13.544;2023-11-21T15:15:48;101119.00;;;7.30
21336;BMP180;69435;52.670;13.544;2023-11-21T15:18:35;101150.00;;;7.40
21336;BMP180;69435;52.670;13.544;2023-11-21T15:21:21;101168.00;;;7.30
21336;BMP180;69435;52.670;13.544;2023-11-21T15:24:10;101178.00;;;7.30
21336;BMP180;69435;52.670;13.544;2023-11-21T15:26:56;101183.00;;;7.30
21336;BMP180;69435;52.670;13.544;2023-11-21T15:29:43;101179.00;;;7.30
21336;BMP180;69435;52.670;13.544;2023-11-21T15:32:29;101179.00;;;7.20
21336;BMP180;69435;52.670;13.544;2023-11-21T15:35:16;101180.00;;;7.20
21336;BMP180;69435;52.670;13.544;2023-11-21T15:38:02;101201.00;;;7.30
21336;BMP180;69435;52.670;13.544;2023-11-21T15:40:48;101199.00;;;7.30
21336;BMP180;69435;52.670;13.544;2023-11-21T15:43:35;101220.00;;;7.30
21336;BMP180;69435;52.670;13.544;2023-11-21T15:46:21;101195.00;;;7.30
21336;BMP180;69435;52.670;13.544;2023-11-21T15:49:08;101193.00;;;7.20
21336;BMP180;69435;52.670;13.544;2023-11-21T15:51:58;101213.00;;;7.30
21336;BMP180;69435;52.670;13.544;2023-11-21T15:54:45;101222.00;;;7.20
21336;BMP180;69435;52.670;13.544;2023-11-21T15:57:31;101225.00;;;7.20